Aviation Digital Data Service (ADDS)

Output produced by METARs form (2224 UTC 23 March 2019)
found at http://www.aviationweather.gov/metar/data/
 
METAR text: SOCA 232200Z AUTO 08006KT 050V110 9999 FEW021 BKN039 27/23 Q1013 NOSIG
Conditions at: SOCA (CAYENNE/ROCHAMBE, GY) observed 2200 UTC 23 March 2019
Temperature: 27.0°C (81°F)
Dewpoint: 23.0°C (73°F) [RH = 79%]
Pressure (altimeter): 29.91 inches Hg (1013.0 mb)
Winds: from the E (80 degrees) at 7 MPH (6 knots; 3.1 m/s)
Visibility: 6 or more miles (10+ km)
Ceiling: 3900 feet AGL
Clouds: few clouds at 2100 feet AGL
broken clouds at 3900 feet AGL
Weather: no significant weather observed at this time

METAR text: SOCA 232130Z AUTO 05011KT 9999 FEW023 SCT032 28/23 Q1012 NOSIG
Conditions at: SOCA (CAYENNE/ROCHAMBE, GY) observed 2130 UTC 23 March 2019
Temperature: 28.0°C (82°F)
Dewpoint: 23.0°C (73°F) [RH = 74%]
Pressure (altimeter): 29.88 inches Hg (1012.0 mb)
Winds: from the NE (50 degrees) at 13 MPH (11 knots; 5.7 m/s)
Visibility: 6 or more miles (10+ km)
Ceiling: at least 12,000 feet AGL
Clouds: few clouds at 2300 feet AGL
scattered clouds at 3200 feet AGL
Weather: no significant weather observed at this time

METAR text: SOCA 232100Z AUTO 05011KT 9999 SCT024 SCT034 28/22 Q1012 NOSIG
Conditions at: SOCA (CAYENNE/ROCHAMBE, GY) observed 2100 UTC 23 March 2019
Temperature: 28.0°C (82°F)
Dewpoint: 22.0°C (72°F) [RH = 70%]
Pressure (altimeter): 29.88 inches Hg (1012.0 mb)
Winds: from the NE (50 degrees) at 13 MPH (11 knots; 5.7 m/s)
Visibility: 6 or more miles (10+ km)
Ceiling: at least 12,000 feet AGL
Clouds: scattered clouds at 2400 feet AGL
scattered clouds at 3400 feet AGL
Weather: no significant weather observed at this time

METAR text: SOCA 232030Z AUTO 05011KT 9999 BKN025 BKN033 BKN043 29/22 Q1012 NOSIG
Conditions at: SOCA (CAYENNE/ROCHAMBE, GY) observed 2030 UTC 23 March 2019
Temperature: 29.0°C (84°F)
Dewpoint: 22.0°C (72°F) [RH = 66%]
Pressure (altimeter): 29.88 inches Hg (1012.0 mb)
Winds: from the NE (50 degrees) at 13 MPH (11 knots; 5.7 m/s)
Visibility: 6 or more miles (10+ km)
Ceiling: 2500 feet AGL
Clouds: broken clouds at 2500 feet AGL
broken clouds at 3300 feet AGL
broken clouds at 4300 feet AGL
Weather: no significant weather observed at this time

METAR text: SOCA 232000Z AUTO 05011KT 030V090 9999 SCT027 BKN032 BKN041 29/23 Q1012 NOSIG
Conditions at: SOCA (CAYENNE/ROCHAMBE, GY) observed 2000 UTC 23 March 2019
Temperature: 29.0°C (84°F)
Dewpoint: 23.0°C (73°F) [RH = 70%]
Pressure (altimeter): 29.88 inches Hg (1012.0 mb)
Winds: from the NE (50 degrees) at 13 MPH (11 knots; 5.7 m/s)
Visibility: 6 or more miles (10+ km)
Ceiling: 3200 feet AGL
Clouds: scattered clouds at 2700 feet AGL
broken clouds at 3200 feet AGL
broken clouds at 4100 feet AGL
Weather: no significant weather observed at this time

METAR text: SOCA 231930Z AUTO 05011KT 9999 SCT025 BKN031 BKN045 29/23 Q1012 NOSIG
Conditions at: SOCA (CAYENNE/ROCHAMBE, GY) observed 1930 UTC 23 March 2019
Temperature: 29.0°C (84°F)
Dewpoint: 23.0°C (73°F) [RH = 70%]
Pressure (altimeter): 29.88 inches Hg (1012.0 mb)
Winds: from the NE (50 degrees) at 13 MPH (11 knots; 5.7 m/s)
Visibility: 6 or more miles (10+ km)
Ceiling: 3100 feet AGL
Clouds: scattered clouds at 2500 feet AGL
broken clouds at 3100 feet AGL
broken clouds at 4500 feet AGL
Weather: no significant weather observed at this time

METAR text: SOCA 231900Z AUTO 06011KT 9999 BKN028 BKN034 30/23 Q1012 NOSIG
Conditions at: SOCA (CAYENNE/ROCHAMBE, GY) observed 1900 UTC 23 March 2019
Temperature: 30.0°C (86°F)
Dewpoint: 23.0°C (73°F) [RH = 66%]
Pressure (altimeter): 29.88 inches Hg (1012.0 mb)
Winds: from the ENE (60 degrees) at 13 MPH (11 knots; 5.7 m/s)
Visibility: 6 or more miles (10+ km)
Ceiling: 2800 feet AGL
Clouds: broken clouds at 2800 feet AGL
broken clouds at 3400 feet AGL
Weather: no significant weather observed at this time

METAR text: SOCA 231830Z AUTO 06014KT 9999 FEW029 SCT037 30/22 Q1012 NOSIG
Conditions at: SOCA (CAYENNE/ROCHAMBE, GY) observed 1830 UTC 23 March 2019
Temperature: 30.0°C (86°F)
Dewpoint: 22.0°C (72°F) [RH = 62%]
Pressure (altimeter): 29.88 inches Hg (1012.0 mb)
Winds: from the ENE (60 degrees) at 16 MPH (14 knots; 7.2 m/s)
Visibility: 6 or more miles (10+ km)
Ceiling: at least 12,000 feet AGL
Clouds: few clouds at 2900 feet AGL
scattered clouds at 3700 feet AGL
Weather: no significant weather observed at this time

METAR text: SOCA 231800Z AUTO 05012KT 9999 SCT030 BKN038 BKN047 31/23 Q1013 NOSIG
Conditions at: SOCA (CAYENNE/ROCHAMBE, GY) observed 1800 UTC 23 March 2019
Temperature: 31.0°C (88°F)
Dewpoint: 23.0°C (73°F) [RH = 63%]
Pressure (altimeter): 29.91 inches Hg (1013.0 mb)
Winds: from the NE (50 degrees) at 14 MPH (12 knots; 6.2 m/s)
Visibility: 6 or more miles (10+ km)
Ceiling: 3800 feet AGL
Clouds: scattered clouds at 3000 feet AGL
broken clouds at 3800 feet AGL
broken clouds at 4700 feet AGL
Weather: no significant weather observed at this time

METAR text: SOCA 231730Z AUTO 07013KT 9999 SCT031 SCT037 31/22 Q1013 NOSIG
Conditions at: SOCA (CAYENNE/ROCHAMBE, GY) observed 1730 UTC 23 March 2019
Temperature: 31.0°C (88°F)
Dewpoint: 22.0°C (72°F) [RH = 59%]
Pressure (altimeter): 29.91 inches Hg (1013.0 mb)
Winds: from the ENE (70 degrees) at 15 MPH (13 knots; 6.7 m/s)
Visibility: 6 or more miles (10+ km)
Ceiling: at least 12,000 feet AGL
Clouds: scattered clouds at 3100 feet AGL
scattered clouds at 3700 feet AGL
Weather: no significant weather observed at this time

METAR text: SOCA 231700Z AUTO 08011KT 040V110 9999 FEW032 30/22 Q1013 NOSIG
Conditions at: SOCA (CAYENNE/ROCHAMBE, GY) observed 1700 UTC 23 March 2019
Temperature: 30.0°C (86°F)
Dewpoint: 22.0°C (72°F) [RH = 62%]
Pressure (altimeter): 29.91 inches Hg (1013.0 mb)
Winds: from the E (80 degrees) at 13 MPH (11 knots; 5.7 m/s)
Visibility: 6 or more miles (10+ km)
Ceiling: at least 12,000 feet AGL
Clouds: few clouds at 3200 feet AGL
Weather: no significant weather observed at this time

METAR text: SOCA 231630Z AUTO 06013KT 040V100 9999 FEW030 BKN082 31/22 Q1014 NOSIG
Conditions at: SOCA (CAYENNE/ROCHAMBE, GY) observed 1630 UTC 23 March 2019
Temperature: 31.0°C (88°F)
Dewpoint: 22.0°C (72°F) [RH = 59%]
Pressure (altimeter): 29.94 inches Hg (1014.0 mb)
Winds: from the ENE (60 degrees) at 15 MPH (13 knots; 6.7 m/s)
Visibility: 6 or more miles (10+ km)
Ceiling: 8200 feet AGL
Clouds: few clouds at 3000 feet AGL
broken clouds at 8200 feet AGL
Weather: no significant weather observed at this time

METAR text: SOCA 231600Z AUTO 06015KT 9999 FEW036 BKN074 31/23 Q1015 NOSIG
Conditions at: SOCA (CAYENNE/ROCHAMBE, GY) observed 1600 UTC 23 March 2019
Temperature: 31.0°C (88°F)
Dewpoint: 23.0°C (73°F) [RH = 63%]
Pressure (altimeter): 29.97 inches Hg (1015.0 mb)
Winds: from the ENE (60 degrees) at 17 MPH (15 knots; 7.7 m/s)
Visibility: 6 or more miles (10+ km)
Ceiling: 7400 feet AGL
Clouds: few clouds at 3600 feet AGL
broken clouds at 7400 feet AGL
Weather: no significant weather observed at this time

METAR text: SOCA 231530Z AUTO 07013KT 9999 FEW033 BKN070 30/22 Q1015 NOSIG
Conditions at: SOCA (CAYENNE/ROCHAMBE, GY) observed 1530 UTC 23 March 2019
Temperature: 30.0°C (86°F)
Dewpoint: 22.0°C (72°F) [RH = 62%]
Pressure (altimeter): 29.97 inches Hg (1015.0 mb)
Winds: from the ENE (70 degrees) at 15 MPH (13 knots; 6.7 m/s)
Visibility: 6 or more miles (10+ km)
Ceiling: 7000 feet AGL
Clouds: few clouds at 3300 feet AGL
broken clouds at 7000 feet AGL
Weather: no significant weather observed at this time

METAR text: SOCA 231500Z AUTO 07013KT 040V100 9999 SCT029 SCT038 BKN068 30/22 Q1015 NOSIG
Conditions at: SOCA (CAYENNE/ROCHAMBE, GY) observed 1500 UTC 23 March 2019
Temperature: 30.0°C (86°F)
Dewpoint: 22.0°C (72°F) [RH = 62%]
Pressure (altimeter): 29.97 inches Hg (1015.0 mb)
Winds: from the ENE (70 degrees) at 15 MPH (13 knots; 6.7 m/s)
Visibility: 6 or more miles (10+ km)
Ceiling: 6800 feet AGL
Clouds: scattered clouds at 2900 feet AGL
scattered clouds at 3800 feet AGL
broken clouds at 6800 feet AGL
Weather: no significant weather observed at this time

METAR text: SOCA 231430Z AUTO 06013KT 040V110 9999 SCT028 SCT034 BKN056 30/22 Q1016 NOSIG
Conditions at: SOCA (CAYENNE/ROCHAMBE, GY) observed 1430 UTC 23 March 2019
Temperature: 30.0°C (86°F)
Dewpoint: 22.0°C (72°F) [RH = 62%]
Pressure (altimeter): 30.00 inches Hg (1016.0 mb)
Winds: from the ENE (60 degrees) at 15 MPH (13 knots; 6.7 m/s)
Visibility: 6 or more miles (10+ km)
Ceiling: 5600 feet AGL
Clouds: scattered clouds at 2800 feet AGL
scattered clouds at 3400 feet AGL
broken clouds at 5600 feet AGL
Weather: no significant weather observed at this time

METAR text: SOCA 231400Z AUTO 07014KT CAVOK 31/22 Q1016 NOSIG
Conditions at: SOCA (CAYENNE/ROCHAMBE, GY) observed 1400 UTC 23 March 2019
Temperature: 31.0°C (88°F)
Dewpoint: 22.0°C (72°F) [RH = 59%]
Pressure (altimeter): 30.00 inches Hg (1016.0 mb)
Winds: from the ENE (70 degrees) at 16 MPH (14 knots; 7.2 m/s)
Visibility: 6 or more miles (10+ km)
Ceiling: ceiling and visibility are OK
Clouds: unknown
Weather: no significant weather observed at this time

METAR text: SOCA 231330Z AUTO 08014KT 040V110 9999 BKN027 BKN033 30/22 Q1016 NOSIG
Conditions at: SOCA (CAYENNE/ROCHAMBE, GY) observed 1330 UTC 23 March 2019
Temperature: 30.0°C (86°F)
Dewpoint: 22.0°C (72°F) [RH = 62%]
Pressure (altimeter): 30.00 inches Hg (1016.0 mb)
Winds: from the E (80 degrees) at 16 MPH (14 knots; 7.2 m/s)
Visibility: 6 or more miles (10+ km)
Ceiling: 2700 feet AGL
Clouds: broken clouds at 2700 feet AGL
broken clouds at 3300 feet AGL
Weather: no significant weather observed at this time

METAR text: SOCA 231300Z AUTO 08012KT 050V110 9999 FEW027 SCT049 BKN058 29/22 Q1016 NOSIG
Conditions at: SOCA (CAYENNE/ROCHAMBE, GY) observed 1300 UTC 23 March 2019
Temperature: 29.0°C (84°F)
Dewpoint: 22.0°C (72°F) [RH = 66%]
Pressure (altimeter): 30.00 inches Hg (1016.0 mb)
Winds: from the E (80 degrees) at 14 MPH (12 knots; 6.2 m/s)
Visibility: 6 or more miles (10+ km)
Ceiling: 5800 feet AGL
Clouds: few clouds at 2700 feet AGL
scattered clouds at 4900 feet AGL
broken clouds at 5800 feet AGL
Weather: no significant weather observed at this time

METAR text: SOCA 231230Z AUTO 07013KT 9999 FEW025 BKN056 29/23 Q1016 NOSIG
Conditions at: SOCA (CAYENNE/ROCHAMBE, GY) observed 1230 UTC 23 March 2019
Temperature: 29.0°C (84°F)
Dewpoint: 23.0°C (73°F) [RH = 70%]
Pressure (altimeter): 30.00 inches Hg (1016.0 mb)
Winds: from the ENE (70 degrees) at 15 MPH (13 knots; 6.7 m/s)
Visibility: 6 or more miles (10+ km)
Ceiling: 5600 feet AGL
Clouds: few clouds at 2500 feet AGL
broken clouds at 5600 feet AGL
Weather: no significant weather observed at this time

METAR text: SOCA 231200Z AUTO 06010KT 9999 FEW022 SCT028 BKN038 27/24 Q1015 NOSIG
Conditions at: SOCA (CAYENNE/ROCHAMBE, GY) observed 1200 UTC 23 March 2019
Temperature: 27.0°C (81°F)
Dewpoint: 24.0°C (75°F) [RH = 84%]
Pressure (altimeter): 29.97 inches Hg (1015.0 mb)
Winds: from the ENE (60 degrees) at 12 MPH (10 knots; 5.1 m/s)
Visibility: 6 or more miles (10+ km)
Ceiling: 3800 feet AGL
Clouds: few clouds at 2200 feet AGL
scattered clouds at 2800 feet AGL
broken clouds at 3800 feet AGL
Weather: no significant weather observed at this time

METAR text: SOCA 231130Z AUTO 07011KT 9999 +RA BKN024/// BKN031/// BKN037/// ///TCU 26/21 Q1015 BECMG NSW SCT026
Conditions at: SOCA (CAYENNE/ROCHAMBE, GY) observed 1130 UTC 23 March 2019
Temperature: 26.0°C (79°F)
Dewpoint: 21.0°C (70°F) [RH = 74%]
Pressure (altimeter): 29.97 inches Hg (1015.0 mb)
Winds: from the ENE (70 degrees) at 13 MPH (11 knots; 5.7 m/s)
Visibility: 6 or more miles (10+ km)
Ceiling: 2400 feet AGL
Clouds: broken clouds at 2400 feet AGL
broken clouds at 3100 feet AGL
broken clouds at 3700 feet AGL
Weather: +RA  (heavy rain)

METAR text: SOCA 231100Z AUTO 07006KT 9000 BKN022/// BKN029/// BKN049/// ///TCU 26/23 Q1014 TEMPO 4000 SHRA BECMG FEW020
Conditions at: SOCA (CAYENNE/ROCHAMBE, GY) observed 1100 UTC 23 March 2019
Temperature: 26.0°C (79°F)
Dewpoint: 23.0°C (73°F) [RH = 84%]
Pressure (altimeter): 29.94 inches Hg (1014.0 mb)
Winds: from the ENE (70 degrees) at 7 MPH (6 knots; 3.1 m/s)
Visibility: 6 miles ( 9 km)
Ceiling: 2200 feet AGL
Clouds: broken clouds at 2200 feet AGL
broken clouds at 2900 feet AGL
broken clouds at 4900 feet AGL
Weather: no significant weather observed at this time

METAR text: SOCA 231030Z AUTO 05008KT 9999 SCT023 SCT033 BKN046 26/22 Q1014 TEMPO 4000 SHRA FEW012TCU
Conditions at: SOCA (CAYENNE/ROCHAMBE, GY) observed 1030 UTC 23 March 2019
Temperature: 26.0°C (79°F)
Dewpoint: 22.0°C (72°F) [RH = 79%]
Pressure (altimeter): 29.94 inches Hg (1014.0 mb)
Winds: from the NE (50 degrees) at 9 MPH (8 knots; 4.1 m/s)
Visibility: 6 or more miles (10+ km)
Ceiling: 4600 feet AGL
Clouds: scattered clouds at 2300 feet AGL
scattered clouds at 3300 feet AGL
broken clouds at 4600 feet AGL
Weather: no significant weather observed at this time

METAR text: SOCA 231000Z AUTO 07006KT 9999 BKN023/// BKN034/// BKN060/// ///TCU 26/23 Q1014 TEMPO 4000 SHRA
Conditions at: SOCA (CAYENNE/ROCHAMBE, GY) observed 1000 UTC 23 March 2019
Temperature: 26.0°C (79°F)
Dewpoint: 23.0°C (73°F) [RH = 84%]
Pressure (altimeter): 29.94 inches Hg (1014.0 mb)
Winds: from the ENE (70 degrees) at 7 MPH (6 knots; 3.1 m/s)
Visibility: 6 or more miles (10+ km)
Ceiling: 2300 feet AGL
Clouds: broken clouds at 2300 feet AGL
broken clouds at 3400 feet AGL
broken clouds at 6000 feet AGL
Weather: no significant weather observed at this time

METAR text: SOCA 230930Z AUTO 06005KT 9999 SCT023 BKN030 26/22 Q1013 TEMPO 4000 SHRA FEW012TCU
Conditions at: SOCA (CAYENNE/ROCHAMBE, GY) observed 0930 UTC 23 March 2019
Temperature: 26.0°C (79°F)
Dewpoint: 22.0°C (72°F) [RH = 79%]
Pressure (altimeter): 29.91 inches Hg (1013.0 mb)
Winds: from the ENE (60 degrees) at 6 MPH (5 knots; 2.6 m/s)
Visibility: 6 or more miles (10+ km)
Ceiling: 3000 feet AGL
Clouds: scattered clouds at 2300 feet AGL
broken clouds at 3000 feet AGL
Weather: no significant weather observed at this time

METAR text: SOCA 230900Z AUTO 06005KT 9999 BKN022 BKN058 26/22 Q1013 TEMPO 4000 SHRA FEW012TCU
Conditions at: SOCA (CAYENNE/ROCHAMBE, GY) observed 0900 UTC 23 March 2019
Temperature: 26.0°C (79°F)
Dewpoint: 22.0°C (72°F) [RH = 79%]
Pressure (altimeter): 29.91 inches Hg (1013.0 mb)
Winds: from the ENE (60 degrees) at 6 MPH (5 knots; 2.6 m/s)
Visibility: 6 or more miles (10+ km)
Ceiling: 2200 feet AGL
Clouds: broken clouds at 2200 feet AGL
broken clouds at 5800 feet AGL
Weather: no significant weather observed at this time

METAR text: SOCA 230830Z AUTO 07006KT CAVOK 26/22 Q1012 TEMPO 4000 SHRA FEW012TCU
Conditions at: SOCA (CAYENNE/ROCHAMBE, GY) observed 0830 UTC 23 March 2019
Temperature: 26.0°C (79°F)
Dewpoint: 22.0°C (72°F) [RH = 79%]
Pressure (altimeter): 29.88 inches Hg (1012.0 mb)
Winds: from the ENE (70 degrees) at 7 MPH (6 knots; 3.1 m/s)
Visibility: 6 or more miles (10+ km)
Ceiling: ceiling and visibility are OK
Clouds: unknown
Weather: no significant weather observed at this time

METAR text: SOCA 230800Z AUTO 06008KT 9999 FEW022 26/22 Q1012 TEMPO 4000 SHRA FEW012TCU
Conditions at: SOCA (CAYENNE/ROCHAMBE, GY) observed 0800 UTC 23 March 2019
Temperature: 26.0°C (79°F)
Dewpoint: 22.0°C (72°F) [RH = 79%]
Pressure (altimeter): 29.88 inches Hg (1012.0 mb)
Winds: from the ENE (60 degrees) at 9 MPH (8 knots; 4.1 m/s)
Visibility: 6 or more miles (10+ km)
Ceiling: at least 12,000 feet AGL
Clouds: few clouds at 2200 feet AGL
Weather: no significant weather observed at this time

METAR text: SOCA 230730Z AUTO 07008KT 9999 FEW023 26/22 Q1012 TEMPO 4000 SHRA FEW012TCU
Conditions at: SOCA (CAYENNE/ROCHAMBE, GY) observed 0730 UTC 23 March 2019
Temperature: 26.0°C (79°F)
Dewpoint: 22.0°C (72°F) [RH = 79%]
Pressure (altimeter): 29.88 inches Hg (1012.0 mb)
Winds: from the ENE (70 degrees) at 9 MPH (8 knots; 4.1 m/s)
Visibility: 6 or more miles (10+ km)
Ceiling: at least 12,000 feet AGL
Clouds: few clouds at 2300 feet AGL
Weather: no significant weather observed at this time

METAR text: SOCA 230700Z AUTO 06009KT 9999 FEW024 SCT058 26/22 Q1012 TEMPO 4000 SHRA FEW012TCU
Conditions at: SOCA (CAYENNE/ROCHAMBE, GY) observed 0700 UTC 23 March 2019
Temperature: 26.0°C (79°F)
Dewpoint: 22.0°C (72°F) [RH = 79%]
Pressure (altimeter): 29.88 inches Hg (1012.0 mb)
Winds: from the ENE (60 degrees) at 10 MPH (9 knots; 4.6 m/s)
Visibility: 6 or more miles (10+ km)
Ceiling: at least 12,000 feet AGL
Clouds: few clouds at 2400 feet AGL
scattered clouds at 5800 feet AGL
Weather: no significant weather observed at this time

METAR text: SOCA 230630Z AUTO 07005KT 9999 FEW022 SCT040 BKN056 26/22 Q1012 TEMPO 4000 SHRA FEW012TCU
Conditions at: SOCA (CAYENNE/ROCHAMBE, GY) observed 0630 UTC 23 March 2019
Temperature: 26.0°C (79°F)
Dewpoint: 22.0°C (72°F) [RH = 79%]
Pressure (altimeter): 29.88 inches Hg (1012.0 mb)
Winds: from the ENE (70 degrees) at 6 MPH (5 knots; 2.6 m/s)
Visibility: 6 or more miles (10+ km)
Ceiling: 5600 feet AGL
Clouds: few clouds at 2200 feet AGL
scattered clouds at 4000 feet AGL
broken clouds at 5600 feet AGL
Weather: no significant weather observed at this time

METAR text: SOCA 230600Z AUTO 07004KT 9999 SCT022 BKN031 BKN048 26/22 Q1012 TEMPO 4000 SHRA FEW012TCU
Conditions at: SOCA (CAYENNE/ROCHAMBE, GY) observed 0600 UTC 23 March 2019
Temperature: 26.0°C (79°F)
Dewpoint: 22.0°C (72°F) [RH = 79%]
Pressure (altimeter): 29.88 inches Hg (1012.0 mb)
Winds: from the ENE (70 degrees) at 5 MPH (4 knots; 2.1 m/s)
Visibility: 6 or more miles (10+ km)
Ceiling: 3100 feet AGL
Clouds: scattered clouds at 2200 feet AGL
broken clouds at 3100 feet AGL
broken clouds at 4800 feet AGL
Weather: no significant weather observed at this time

METAR text: SOCA 230530Z AUTO 09005KT 9999 FEW023 26/22 Q1013 TEMPO 4000 SHRA FEW012TCU
Conditions at: SOCA (CAYENNE/ROCHAMBE, GY) observed 0530 UTC 23 March 2019
Temperature: 26.0°C (79°F)
Dewpoint: 22.0°C (72°F) [RH = 79%]
Pressure (altimeter): 29.91 inches Hg (1013.0 mb)
Winds: from the E (90 degrees) at 6 MPH (5 knots; 2.6 m/s)
Visibility: 6 or more miles (10+ km)
Ceiling: at least 12,000 feet AGL
Clouds: few clouds at 2300 feet AGL
Weather: no significant weather observed at this time

METAR text: SOCA 230500Z AUTO 08005KT 9999 FEW024 SCT046 26/23 Q1013 TEMPO 4000 SHRA FEW012TCU
Conditions at: SOCA (CAYENNE/ROCHAMBE, GY) observed 0500 UTC 23 March 2019
Temperature: 26.0°C (79°F)
Dewpoint: 23.0°C (73°F) [RH = 84%]
Pressure (altimeter): 29.91 inches Hg (1013.0 mb)
Winds: from the E (80 degrees) at 6 MPH (5 knots; 2.6 m/s)
Visibility: 6 or more miles (10+ km)
Ceiling: at least 12,000 feet AGL
Clouds: few clouds at 2400 feet AGL
scattered clouds at 4600 feet AGL
Weather: no significant weather observed at this time

METAR text: SOCA 230430Z AUTO 07003KT 9000 FEW025 SCT044 26/23 Q1013 TEMPO 4000 SHRA FEW012TCU
Conditions at: SOCA (CAYENNE/ROCHAMBE, GY) observed 0430 UTC 23 March 2019
Temperature: 26.0°C (79°F)
Dewpoint: 23.0°C (73°F) [RH = 84%]
Pressure (altimeter): 29.91 inches Hg (1013.0 mb)
Winds: from the ENE (70 degrees) at 3 MPH (3 knots; 1.5 m/s)
Visibility: 6 miles ( 9 km)
Ceiling: at least 12,000 feet AGL
Clouds: few clouds at 2500 feet AGL
scattered clouds at 4400 feet AGL
Weather: no significant weather observed at this time

METAR text: SOCA 230400Z AUTO 06007KT 9000 FEW025 SCT030 OVC040 26/23 Q1013 TEMPO 4000 SHRA FEW012TCU
Conditions at: SOCA (CAYENNE/ROCHAMBE, GY) observed 0400 UTC 23 March 2019
Temperature: 26.0°C (79°F)
Dewpoint: 23.0°C (73°F) [RH = 84%]
Pressure (altimeter): 29.91 inches Hg (1013.0 mb)
Winds: from the ENE (60 degrees) at 8 MPH (7 knots; 3.6 m/s)
Visibility: 6 miles ( 9 km)
Ceiling: 4000 feet AGL
Clouds: few clouds at 2500 feet AGL
scattered clouds at 3000 feet AGL
overcast cloud deck at 4000 feet AGL
Weather: no significant weather observed at this time

METAR text: SOCA 230330Z AUTO 07006KT 9000 SCT023 SCT060 27/22 Q1014 TEMPO 4000 SHRA FEW012TCU
Conditions at: SOCA (CAYENNE/ROCHAMBE, GY) observed 0330 UTC 23 March 2019
Temperature: 27.0°C (81°F)
Dewpoint: 22.0°C (72°F) [RH = 74%]
Pressure (altimeter): 29.94 inches Hg (1014.0 mb)
Winds: from the ENE (70 degrees) at 7 MPH (6 knots; 3.1 m/s)
Visibility: 6 miles ( 9 km)
Ceiling: at least 12,000 feet AGL
Clouds: scattered clouds at 2300 feet AGL
scattered clouds at 6000 feet AGL
Weather: no significant weather observed at this time

METAR text: SOCA 230300Z AUTO 07007KT 030V090 9000 BKN023 BKN033 BKN042 27/22 Q1014 TEMPO 4000 SHRA FEW012TCU
Conditions at: SOCA (CAYENNE/ROCHAMBE, GY) observed 0300 UTC 23 March 2019
Temperature: 27.0°C (81°F)
Dewpoint: 22.0°C (72°F) [RH = 74%]
Pressure (altimeter): 29.94 inches Hg (1014.0 mb)
Winds: from the ENE (70 degrees) at 8 MPH (7 knots; 3.6 m/s)
Visibility: 6 miles ( 9 km)
Ceiling: 2300 feet AGL
Clouds: broken clouds at 2300 feet AGL
broken clouds at 3300 feet AGL
broken clouds at 4200 feet AGL
Weather: no significant weather observed at this time

METAR text: SOCA 230230Z AUTO 08008KT 9000 FEW024 BKN036 BKN044 27/23 Q1014 TEMPO 4000 SHRA FEW012TCU
Conditions at: SOCA (CAYENNE/ROCHAMBE, GY) observed 0230 UTC 23 March 2019
Temperature: 27.0°C (81°F)
Dewpoint: 23.0°C (73°F) [RH = 79%]
Pressure (altimeter): 29.94 inches Hg (1014.0 mb)
Winds: from the E (80 degrees) at 9 MPH (8 knots; 4.1 m/s)
Visibility: 6 miles ( 9 km)
Ceiling: 3600 feet AGL
Clouds: few clouds at 2400 feet AGL
broken clouds at 3600 feet AGL
broken clouds at 4400 feet AGL
Weather: no significant weather observed at this time

METAR text: SOCA 230200Z AUTO 07007KT 9000 SCT023 BKN031 BKN038 27/23 Q1014 TEMPO 4000 SHRA FEW012TCU
Conditions at: SOCA (CAYENNE/ROCHAMBE, GY) observed 0200 UTC 23 March 2019
Temperature: 27.0°C (81°F)
Dewpoint: 23.0°C (73°F) [RH = 79%]
Pressure (altimeter): 29.94 inches Hg (1014.0 mb)
Winds: from the ENE (70 degrees) at 8 MPH (7 knots; 3.6 m/s)
Visibility: 6 miles ( 9 km)
Ceiling: 3100 feet AGL
Clouds: scattered clouds at 2300 feet AGL
broken clouds at 3100 feet AGL
broken clouds at 3800 feet AGL
Weather: no significant weather observed at this time

METAR text: SOCA 230130Z AUTO 06006KT 030V090 9999 SCT025 SCT033 BKN040 27/23 Q1014 TEMPO 4000 SHRA FEW012TCU
Conditions at: SOCA (CAYENNE/ROCHAMBE, GY) observed 0130 UTC 23 March 2019
Temperature: 27.0°C (81°F)
Dewpoint: 23.0°C (73°F) [RH = 79%]
Pressure (altimeter): 29.94 inches Hg (1014.0 mb)
Winds: from the ENE (60 degrees) at 7 MPH (6 knots; 3.1 m/s)
Visibility: 6 or more miles (10+ km)
Ceiling: 4000 feet AGL
Clouds: scattered clouds at 2500 feet AGL
scattered clouds at 3300 feet AGL
broken clouds at 4000 feet AGL
Weather: no significant weather observed at this time

METAR text: SOCA 230100Z AUTO 06007KT 9999 FEW021 27/22 Q1014 NOSIG
Conditions at: SOCA (CAYENNE/ROCHAMBE, GY) observed 0100 UTC 23 March 2019
Temperature: 27.0°C (81°F)
Dewpoint: 22.0°C (72°F) [RH = 74%]
Pressure (altimeter): 29.94 inches Hg (1014.0 mb)
Winds: from the ENE (60 degrees) at 8 MPH (7 knots; 3.6 m/s)
Visibility: 6 or more miles (10+ km)
Ceiling: at least 12,000 feet AGL
Clouds: few clouds at 2100 feet AGL
Weather: no significant weather observed at this time

METAR text: SOCA 230030Z AUTO 07008KT 9999 FEW023 SCT054 27/23 Q1014 NOSIG
Conditions at: SOCA (CAYENNE/ROCHAMBE, GY) observed 0030 UTC 23 March 2019
Temperature: 27.0°C (81°F)
Dewpoint: 23.0°C (73°F) [RH = 79%]
Pressure (altimeter): 29.94 inches Hg (1014.0 mb)
Winds: from the ENE (70 degrees) at 9 MPH (8 knots; 4.1 m/s)
Visibility: 6 or more miles (10+ km)
Ceiling: at least 12,000 feet AGL
Clouds: few clouds at 2300 feet AGL
scattered clouds at 5400 feet AGL
Weather: no significant weather observed at this time

METAR text: SOCA 230000Z AUTO 07007KT CAVOK 27/23 Q1013 TEMPO SHRA FEW012TCU
Conditions at: SOCA (CAYENNE/ROCHAMBE, GY) observed 0000 UTC 23 March 2019
Temperature: 27.0°C (81°F)
Dewpoint: 23.0°C (73°F) [RH = 79%]
Pressure (altimeter): 29.91 inches Hg (1013.0 mb)
Winds: from the ENE (70 degrees) at 8 MPH (7 knots; 3.6 m/s)
Visibility: 6 or more miles (10+ km)
Ceiling: ceiling and visibility are OK
Clouds: unknown
Weather: no significant weather observed at this time

METAR text: SOCA 222330Z AUTO 06008KT 9999 FEW024 27/23 Q1013 TEMPO SHRA FEW012TCU
Conditions at: SOCA (CAYENNE/ROCHAMBE, GY) observed 2330 UTC 22 March 2019
Temperature: 27.0°C (81°F)
Dewpoint: 23.0°C (73°F) [RH = 79%]
Pressure (altimeter): 29.91 inches Hg (1013.0 mb)
Winds: from the ENE (60 degrees) at 9 MPH (8 knots; 4.1 m/s)
Visibility: 6 or more miles (10+ km)
Ceiling: at least 12,000 feet AGL
Clouds: few clouds at 2400 feet AGL
Weather: no significant weather observed at this time

METAR text: SOCA 222300Z AUTO 06005KT 9999 FEW048 27/23 Q1013 TEMPO SHRA FEW012TCU
Conditions at: SOCA (CAYENNE/ROCHAMBE, GY) observed 2300 UTC 22 March 2019
Temperature: 27.0°C (81°F)
Dewpoint: 23.0°C (73°F) [RH = 79%]
Pressure (altimeter): 29.91 inches Hg (1013.0 mb)
Winds: from the ENE (60 degrees) at 6 MPH (5 knots; 2.6 m/s)
Visibility: 6 or more miles (10+ km)
Ceiling: at least 12,000 feet AGL
Clouds: few clouds at 4800 feet AGL
Weather: no significant weather observed at this time

METAR text: SOCA 222230Z AUTO 05007KT 9999 FEW024 SCT032 27/23 Q1013 TEMPO SHRA FEW012TCU
Conditions at: SOCA (CAYENNE/ROCHAMBE, GY) observed 2230 UTC 22 March 2019
Temperature: 27.0°C (81°F)
Dewpoint: 23.0°C (73°F) [RH = 79%]
Pressure (altimeter): 29.91 inches Hg (1013.0 mb)
Winds: from the NE (50 degrees) at 8 MPH (7 knots; 3.6 m/s)
Visibility: 6 or more miles (10+ km)
Ceiling: at least 12,000 feet AGL
Clouds: few clouds at 2400 feet AGL
scattered clouds at 3200 feet AGL
Weather: no significant weather observed at this time

METAR text: SOCA 222200Z AUTO 05008KT 9999 FEW022 27/23 Q1012 TEMPO SHRA FEW012TCU
Conditions at: SOCA (CAYENNE/ROCHAMBE, GY) observed 2200 UTC 22 March 2019
Temperature: 27.0°C (81°F)
Dewpoint: 23.0°C (73°F) [RH = 79%]
Pressure (altimeter): 29.88 inches Hg (1012.0 mb)
Winds: from the NE (50 degrees) at 9 MPH (8 knots; 4.1 m/s)
Visibility: 6 or more miles (10+ km)
Ceiling: at least 12,000 feet AGL
Clouds: few clouds at 2200 feet AGL
Weather: no significant weather observed at this time

METAR text: SOCA 222130Z AUTO 05009KT 9999 SCT023 BKN031 28/23 Q1012 TEMPO SHRA FEW012TCU
Conditions at: SOCA (CAYENNE/ROCHAMBE, GY) observed 2130 UTC 22 March 2019
Temperature: 28.0°C (82°F)
Dewpoint: 23.0°C (73°F) [RH = 74%]
Pressure (altimeter): 29.88 inches Hg (1012.0 mb)
Winds: from the NE (50 degrees) at 10 MPH (9 knots; 4.6 m/s)
Visibility: 6 or more miles (10+ km)
Ceiling: 3100 feet AGL
Clouds: scattered clouds at 2300 feet AGL
broken clouds at 3100 feet AGL
Weather: no significant weather observed at this time

METAR text: SOCA 222100Z AUTO 05012KT 9999 FEW024 28/23 Q1012 TEMPO SHRA FEW012TCU
Conditions at: SOCA (CAYENNE/ROCHAMBE, GY) observed 2100 UTC 22 March 2019
Temperature: 28.0°C (82°F)
Dewpoint: 23.0°C (73°F) [RH = 74%]
Pressure (altimeter): 29.88 inches Hg (1012.0 mb)
Winds: from the NE (50 degrees) at 14 MPH (12 knots; 6.2 m/s)
Visibility: 6 or more miles (10+ km)
Ceiling: at least 12,000 feet AGL
Clouds: few clouds at 2400 feet AGL
Weather: no significant weather observed at this time

METAR text: SOCA 222030Z AUTO 05011KT 9999 BKN024 BKN031 BKN040 29/23 Q1012 TEMPO SHRA FEW012TCU
Conditions at: SOCA (CAYENNE/ROCHAMBE, GY) observed 2030 UTC 22 March 2019
Temperature: 29.0°C (84°F)
Dewpoint: 23.0°C (73°F) [RH = 70%]
Pressure (altimeter): 29.88 inches Hg (1012.0 mb)
Winds: from the NE (50 degrees) at 13 MPH (11 knots; 5.7 m/s)
Visibility: 6 or more miles (10+ km)
Ceiling: 2400 feet AGL
Clouds: broken clouds at 2400 feet AGL
broken clouds at 3100 feet AGL
broken clouds at 4000 feet AGL
Weather: no significant weather observed at this time

METAR text: SOCA 222000Z AUTO 04012KT 9999 BKN027 BKN037 30/23 Q1012 TEMPO SHRA FEW012TCU
Conditions at: SOCA (CAYENNE/ROCHAMBE, GY) observed 2000 UTC 22 March 2019
Temperature: 30.0°C (86°F)
Dewpoint: 23.0°C (73°F) [RH = 66%]
Pressure (altimeter): 29.88 inches Hg (1012.0 mb)
Winds: from the NE (40 degrees) at 14 MPH (12 knots; 6.2 m/s)
Visibility: 6 or more miles (10+ km)
Ceiling: 2700 feet AGL
Clouds: broken clouds at 2700 feet AGL
broken clouds at 3700 feet AGL
Weather: no significant weather observed at this time

METAR text: SOCA 221930Z AUTO 04011KT 020V080 9999 BKN027 BKN034 BKN041 30/23 Q1011 TEMPO SHRA FEW012TCU
Conditions at: SOCA (CAYENNE/ROCHAMBE, GY) observed 1930 UTC 22 March 2019
Temperature: 30.0°C (86°F)
Dewpoint: 23.0°C (73°F) [RH = 66%]
Pressure (altimeter): 29.85 inches Hg (1011.0 mb)
Winds: from the NE (40 degrees) at 13 MPH (11 knots; 5.7 m/s)
Visibility: 6 or more miles (10+ km)
Ceiling: 2700 feet AGL
Clouds: broken clouds at 2700 feet AGL
broken clouds at 3400 feet AGL
broken clouds at 4100 feet AGL
Weather: no significant weather observed at this time

METAR text: SOCA 221900Z AUTO 05011KT 010V070 9999 BKN028 BKN035 BKN230 30/22 Q1012 TEMPO SHRA FEW012TCU
Conditions at: SOCA (CAYENNE/ROCHAMBE, GY) observed 1900 UTC 22 March 2019
Temperature: 30.0°C (86°F)
Dewpoint: 22.0°C (72°F) [RH = 62%]
Pressure (altimeter): 29.88 inches Hg (1012.0 mb)
Winds: from the NE (50 degrees) at 13 MPH (11 knots; 5.7 m/s)
Visibility: 6 or more miles (10+ km)
Ceiling: 2800 feet AGL
Clouds: broken clouds at 2800 feet AGL
broken clouds at 3500 feet AGL
broken clouds at 23000 feet AGL
Weather: no significant weather observed at this time

METAR text: SOCA 221830Z AUTO 05013KT 9999 FEW029 SCT038 30/22 Q1012 TEMPO SHRA FEW012TCU
Conditions at: SOCA (CAYENNE/ROCHAMBE, GY) observed 1830 UTC 22 March 2019
Temperature: 30.0°C (86°F)
Dewpoint: 22.0°C (72°F) [RH = 62%]
Pressure (altimeter): 29.88 inches Hg (1012.0 mb)
Winds: from the NE (50 degrees) at 15 MPH (13 knots; 6.7 m/s)
Visibility: 6 or more miles (10+ km)
Ceiling: at least 12,000 feet AGL
Clouds: few clouds at 2900 feet AGL
scattered clouds at 3800 feet AGL
Weather: no significant weather observed at this time

METAR text: SOCA 221800Z AUTO 06010KT 030V090 9999 BKN031 BKN039 BKN046 31/23 Q1012 TEMPO SHRA FEW012TCU
Conditions at: SOCA (CAYENNE/ROCHAMBE, GY) observed 1800 UTC 22 March 2019
Temperature: 31.0°C (88°F)
Dewpoint: 23.0°C (73°F) [RH = 63%]
Pressure (altimeter): 29.88 inches Hg (1012.0 mb)
Winds: from the ENE (60 degrees) at 12 MPH (10 knots; 5.1 m/s)
Visibility: 6 or more miles (10+ km)
Ceiling: 3100 feet AGL
Clouds: broken clouds at 3100 feet AGL
broken clouds at 3900 feet AGL
broken clouds at 4600 feet AGL
Weather: no significant weather observed at this time

METAR text: SOCA 221730Z AUTO 06011KT 030V090 9999 BKN032/// ///TCU 31/22 Q1012 TEMPO SHRA
Conditions at: SOCA (CAYENNE/ROCHAMBE, GY) observed 1730 UTC 22 March 2019
Temperature: 31.0°C (88°F)
Dewpoint: 22.0°C (72°F) [RH = 59%]
Pressure (altimeter): 29.88 inches Hg (1012.0 mb)
Winds: from the ENE (60 degrees) at 13 MPH (11 knots; 5.7 m/s)
Visibility: 6 or more miles (10+ km)
Ceiling: 3200 feet AGL
Clouds: broken clouds at 3200 feet AGL
Weather: no significant weather observed at this time

METAR text: SOCA 221700Z AUTO 08012KT 9999 BKN032 BKN039 31/23 Q1013 NOSIG
Conditions at: SOCA (CAYENNE/ROCHAMBE, GY) observed 1700 UTC 22 March 2019
Temperature: 31.0°C (88°F)
Dewpoint: 23.0°C (73°F) [RH = 63%]
Pressure (altimeter): 29.91 inches Hg (1013.0 mb)
Winds: from the E (80 degrees) at 14 MPH (12 knots; 6.2 m/s)
Visibility: 6 or more miles (10+ km)
Ceiling: 3200 feet AGL
Clouds: broken clouds at 3200 feet AGL
broken clouds at 3900 feet AGL
Weather: no significant weather observed at this time

METAR text: SOCA 221630Z AUTO 07012KT 030V110 9999 SCT034 31/22 Q1013 NOSIG
Conditions at: SOCA (CAYENNE/ROCHAMBE, GY) observed 1630 UTC 22 March 2019
Temperature: 31.0°C (88°F)
Dewpoint: 22.0°C (72°F) [RH = 59%]
Pressure (altimeter): 29.91 inches Hg (1013.0 mb)
Winds: from the ENE (70 degrees) at 14 MPH (12 knots; 6.2 m/s)
Visibility: 6 or more miles (10+ km)
Ceiling: at least 12,000 feet AGL
Clouds: scattered clouds at 3400 feet AGL
Weather: no significant weather observed at this time

METAR text: SOCA 221600Z AUTO 07013KT 9999 FEW033 32/23 Q1014 NOSIG
Conditions at: SOCA (CAYENNE/ROCHAMBE, GY) observed 1600 UTC 22 March 2019
Temperature: 32.0°C (90°F)
Dewpoint: 23.0°C (73°F) [RH = 59%]
Pressure (altimeter): 29.94 inches Hg (1014.0 mb)
Winds: from the ENE (70 degrees) at 15 MPH (13 knots; 6.7 m/s)
Visibility: 6 or more miles (10+ km)
Ceiling: at least 12,000 feet AGL
Clouds: few clouds at 3300 feet AGL
Weather: no significant weather observed at this time

METAR text: SOCA 221530Z AUTO 08012KT 050V110 9999 FEW032 31/22 Q1014 NOSIG
Conditions at: SOCA (CAYENNE/ROCHAMBE, GY) observed 1530 UTC 22 March 2019
Temperature: 31.0°C (88°F)
Dewpoint: 22.0°C (72°F) [RH = 59%]
Pressure (altimeter): 29.94 inches Hg (1014.0 mb)
Winds: from the E (80 degrees) at 14 MPH (12 knots; 6.2 m/s)
Visibility: 6 or more miles (10+ km)
Ceiling: at least 12,000 feet AGL
Clouds: few clouds at 3200 feet AGL
Weather: no significant weather observed at this time

METAR text: SOCA 221500Z AUTO 06014KT 9999 SCT028 SCT033 BKN078 31/22 Q1015 NOSIG
Conditions at: SOCA (CAYENNE/ROCHAMBE, GY) observed 1500 UTC 22 March 2019
Temperature: 31.0°C (88°F)
Dewpoint: 22.0°C (72°F) [RH = 59%]
Pressure (altimeter): 29.97 inches Hg (1015.0 mb)
Winds: from the ENE (60 degrees) at 16 MPH (14 knots; 7.2 m/s)
Visibility: 6 or more miles (10+ km)
Ceiling: 7800 feet AGL
Clouds: scattered clouds at 2800 feet AGL
scattered clouds at 3300 feet AGL
broken clouds at 7800 feet AGL
Weather: no significant weather observed at this time

METAR text: SOCA 221430Z AUTO 07013KT 040V110 9999 BKN027 BKN033 BKN045 31/22 Q1015 NOSIG
Conditions at: SOCA (CAYENNE/ROCHAMBE, GY) observed 1430 UTC 22 March 2019
Temperature: 31.0°C (88°F)
Dewpoint: 22.0°C (72°F) [RH = 59%]
Pressure (altimeter): 29.97 inches Hg (1015.0 mb)
Winds: from the ENE (70 degrees) at 15 MPH (13 knots; 6.7 m/s)
Visibility: 6 or more miles (10+ km)
Ceiling: 2700 feet AGL
Clouds: broken clouds at 2700 feet AGL
broken clouds at 3300 feet AGL
broken clouds at 4500 feet AGL
Weather: no significant weather observed at this time

METAR text: SOCA 221400Z AUTO 06012KT 040V100 9999 BKN028 BKN035 BKN056 31/22 Q1015 NOSIG
Conditions at: SOCA (CAYENNE/ROCHAMBE, GY) observed 1400 UTC 22 March 2019
Temperature: 31.0°C (88°F)
Dewpoint: 22.0°C (72°F) [RH = 59%]
Pressure (altimeter): 29.97 inches Hg (1015.0 mb)
Winds: from the ENE (60 degrees) at 14 MPH (12 knots; 6.2 m/s)
Visibility: 6 or more miles (10+ km)
Ceiling: 2800 feet AGL
Clouds: broken clouds at 2800 feet AGL
broken clouds at 3500 feet AGL
broken clouds at 5600 feet AGL
Weather: no significant weather observed at this time

METAR text: SOCA 221330Z AUTO 06013KT 9999 FEW027 30/23 Q1015 NOSIG
Conditions at: SOCA (CAYENNE/ROCHAMBE, GY) observed 1330 UTC 22 March 2019
Temperature: 30.0°C (86°F)
Dewpoint: 23.0°C (73°F) [RH = 66%]
Pressure (altimeter): 29.97 inches Hg (1015.0 mb)
Winds: from the ENE (60 degrees) at 15 MPH (13 knots; 6.7 m/s)
Visibility: 6 or more miles (10+ km)
Ceiling: at least 12,000 feet AGL
Clouds: few clouds at 2700 feet AGL
Weather: no significant weather observed at this time

METAR text: SOCA 221300Z AUTO 07012KT 9999 FEW026 SCT060 30/22 Q1015 NOSIG
Conditions at: SOCA (CAYENNE/ROCHAMBE, GY) observed 1300 UTC 22 March 2019
Temperature: 30.0°C (86°F)
Dewpoint: 22.0°C (72°F) [RH = 62%]
Pressure (altimeter): 29.97 inches Hg (1015.0 mb)
Winds: from the ENE (70 degrees) at 14 MPH (12 knots; 6.2 m/s)
Visibility: 6 or more miles (10+ km)
Ceiling: at least 12,000 feet AGL
Clouds: few clouds at 2600 feet AGL
scattered clouds at 6000 feet AGL
Weather: no significant weather observed at this time

METAR text: SOCA 221230Z AUTO 07010KT 040V100 9999 FEW025 SCT058 30/23 Q1015 NOSIG
Conditions at: SOCA (CAYENNE/ROCHAMBE, GY) observed 1230 UTC 22 March 2019
Temperature: 30.0°C (86°F)
Dewpoint: 23.0°C (73°F) [RH = 66%]
Pressure (altimeter): 29.97 inches Hg (1015.0 mb)
Winds: from the ENE (70 degrees) at 12 MPH (10 knots; 5.1 m/s)
Visibility: 6 or more miles (10+ km)
Ceiling: at least 12,000 feet AGL
Clouds: few clouds at 2500 feet AGL
scattered clouds at 5800 feet AGL
Weather: no significant weather observed at this time

METAR text: SOCA 221200Z AUTO 07010KT 050V110 9999 SCT022 SCT030 29/22 Q1014 NOSIG
Conditions at: SOCA (CAYENNE/ROCHAMBE, GY) observed 1200 UTC 22 March 2019
Temperature: 29.0°C (84°F)
Dewpoint: 22.0°C (72°F) [RH = 66%]
Pressure (altimeter): 29.94 inches Hg (1014.0 mb)
Winds: from the ENE (70 degrees) at 12 MPH (10 knots; 5.1 m/s)
Visibility: 6 or more miles (10+ km)
Ceiling: at least 12,000 feet AGL
Clouds: scattered clouds at 2200 feet AGL
scattered clouds at 3000 feet AGL
Weather: no significant weather observed at this time

METAR text: SOCA 221130Z AUTO VRB02KT 9999 FEW022 28/23 Q1014 BECMG 07012KT
Conditions at: SOCA (CAYENNE/ROCHAMBE, GY) observed 1130 UTC 22 March 2019
Temperature: 28.0°C (82°F)
Dewpoint: 23.0°C (73°F) [RH = 74%]
Pressure (altimeter): 29.94 inches Hg (1014.0 mb)
Winds: variable direction winds at 2 MPH (2 knots; 1.0 m/s)
Visibility: 6 or more miles (10+ km)
Ceiling: at least 12,000 feet AGL
Clouds: few clouds at 2200 feet AGL
Weather: no significant weather observed at this time

METAR text: SOCA 221100Z AUTO 00000KT 9999 SCT025 SCT034 25/23 Q1014 TEMPO 4000 SHRA SCT012TCU BECMG 05012KT
Conditions at: SOCA (CAYENNE/ROCHAMBE, GY) observed 1100 UTC 22 March 2019
Temperature: 25.0°C (77°F)
Dewpoint: 23.0°C (73°F) [RH = 89%]
Pressure (altimeter): 29.94 inches Hg (1014.0 mb)
Winds: calm
Visibility: 6 or more miles (10+ km)
Ceiling: at least 12,000 feet AGL
Clouds: scattered clouds at 2500 feet AGL
scattered clouds at 3400 feet AGL
Weather: no significant weather observed at this time

METAR text: SOCA 221030Z AUTO 23002KT 9999 BKN022 24/23 Q1013 TEMPO 4000 SHRA SCT012TCU BECMG 05012KT
Conditions at: SOCA (CAYENNE/ROCHAMBE, GY) observed 1030 UTC 22 March 2019
Temperature: 24.0°C (75°F)
Dewpoint: 23.0°C (73°F) [RH = 94%]
Pressure (altimeter): 29.91 inches Hg (1013.0 mb)
Winds: from the SW (230 degrees) at 2 MPH (2 knots; 1.0 m/s)
Visibility: 6 or more miles (10+ km)
Ceiling: 2200 feet AGL
Clouds: broken clouds at 2200 feet AGL
Weather: no significant weather observed at this time

Forecast for: SOCA (CAYENNE/ROCHAMBE, GY)
Text: TAF SOCA 231600Z 2318/2418 07015KT 9000 SA SCT030
Forecast period: 1800 to 2300 UTC 23 March 2019
Forecast type: FROM: standard forecast or significant change
Winds: from the ENE (70 degrees) at 17 MPH (15 knots; 7.7 m/s)
Visibility: 6 miles (9 km)
Ceiling: at least 12,000 feet AGL
Clouds: scattered clouds at 3000 feet AGL
Weather: SA  (sand)
Text: BECMG 2323/2324 04005KT
Forecast period: 2300 UTC 23 March 2019 to 1100 UTC 24 March 2019
Forecast type: BECOMING: Conditions expected to become as follows by 0000 UTC 24 March 2019
Winds: from the NE (40 degrees) at 6 MPH (5 knots; 2.6 m/s)
Visibility: 6 miles (9 km)
Ceiling: at least 12,000 feet AGL
Clouds: scattered clouds at 3000 feet AGL
Weather: SA  (sand)
Text: PROB30
Forecast period: 0700 to 1100 UTC 24 March 2019
Forecast type: TEMPORARY: The following changes expected for less than half the time period
Visibility: 2.49 miles (4.01 km)
Ceiling: at least 12,000 feet AGL
Clouds: few clouds at 1200 feet AGL
Weather: SHRA  (rain showers)
Text: TEMPO 2407/2411 4000 SHRA FEW012TCU
Forecast period: 1100 to 1800 UTC 24 March 2019
Forecast type: BECOMING: Conditions expected to become as follows by 1200 UTC 24 March 2019
Winds: from the ENE (60 degrees) at 16 MPH (14 knots; 7.2 m/s)
Visibility: 6 miles (9 km)
Ceiling: at least 12,000 feet AGL
Clouds: scattered clouds at 3000 feet AGL
Weather: SA  (sand)